Time;durP1;ratioP1;P1;durP2;ratioP2;P2;SDS_P1;SDS_P2;PMS_P1;PMS_P2;Temp;Humidity;BMP_temperature;BMP_pressure;BME280_temperature;BME280_humidity;BME280_pressure;Samples;Min_cycle;Max_cycle;Signal;HPM_P1;HPM_P2
2023/05/21 00:00:59;;;;;;;0.75;0.50;;;;;;;;;;5026058;28;58339;-61
2023/05/21 00:03:26;;;;;;;0.60;0.60;;;;;;;;;;5025378;28;58395;-62
2023/05/21 00:05:52;;;;;;;1.20;0.40;;;;;;;;;;5024184;28;58450;-65
2023/05/21 00:08:17;;;;;;;1.60;0.43;;;;;;;;;;5024254;28;58752;-69
2023/05/21 00:10:42;;;;;;;0.57;0.57;;;;;;;;;;5027751;28;58775;-63
2023/05/21 00:13:09;;;;;;;0.50;0.50;;;;;;;;;;5021690;28;58578;-60
2023/05/21 00:15:34;;;;;;;0.70;0.70;;;;;;;;;;5025108;28;60087;-62
2023/05/21 00:18:00;;;;;;;0.40;0.40;;;;;;;;;;5023116;28;58648;-62
2023/05/21 00:20:25;;;;;;;0.35;0.35;;;;;;;;;;5024521;28;58544;-63
2023/05/21 00:22:50;;;;;;;0.50;0.47;;;;;;;;;;5027026;28;58271;-66
2023/05/21 00:25:16;;;;;;;0.33;0.33;;;;;;;;;;5026669;28;58878;-66
2023/05/21 00:27:41;;;;;;;0.37;0.37;;;;;;;;;;5023815;28;58405;-64
2023/05/21 00:30:06;;;;;;;0.40;0.40;;;;;;;;;;5027291;28;58564;-63
2023/05/21 00:32:31;;;;;;;0.50;0.50;;;;;;;;;;5023494;28;58756;-64
2023/05/21 00:34:57;;;;;;;0.53;0.53;;;;;;;;;;5027494;28;58884;-65
2023/05/21 00:37:23;;;;;;;0.43;0.43;;;;;;;;;;5020813;28;60141;-64
2023/05/21 00:39:48;;;;;;;0.40;0.38;;;;;;;;;;5020546;28;58345;-65
2023/05/21 00:42:16;;;;;;;0.55;0.55;;;;;;;;;;5023998;28;58953;-61
2023/05/21 00:44:42;;;;;;;0.52;0.52;;;;;;;;;;5023669;28;58093;-67
2023/05/21 00:47:07;;;;;;;0.50;0.50;;;;;;;;;;5024524;28;58567;-60
2023/05/21 00:49:33;;;;;;;0.30;0.30;;;;;;;;;;5024512;28;58944;-61
2023/05/21 00:52:00;;;;;;;0.30;0.30;;;;;;;;;;5026751;28;58291;-61
2023/05/21 00:54:25;;;;;;;1.02;0.73;;;;;;;;;;5021174;28;58845;-61
2023/05/21 00:56:50;;;;;;;2.67;0.50;;;;;;;;;;5023138;28;58744;-61
2023/05/21 00:59:16;;;;;;;1.47;0.70;;;;;;;;;;5022805;28;58464;-61
2023/05/21 01:01:54;;;;;;;0.73;0.50;;;;;;;;;;5021810;28;58694;-61
2023/05/21 01:04:19;;;;;;;0.40;0.40;;;;;;;;;;5024947;28;58661;-61
2023/05/21 01:06:45;;;;;;;0.47;0.47;;;;;;;;;;5025605;28;58320;-61
2023/05/21 01:09:10;;;;;;;0.53;0.53;;;;;;;;;;5023044;28;59834;-61
2023/05/21 01:11:37;;;;;;;0.50;0.50;;;;;;;;;;5011581;28;59717;-61
2023/05/21 01:14:03;;;;;;;0.38;0.30;;;;;;;;;;5023503;28;58577;-60
2023/05/21 01:16:31;;;;;;;0.52;0.52;;;;;;;;;;5021809;28;58933;-61
2023/05/21 01:18:56;;;;;;;0.40;0.40;;;;;;;;;;5022824;28;58653;-61
2023/05/21 01:21:24;;;;;;;0.90;0.63;;;;;;;;;;5025809;28;59977;-61
2023/05/21 01:23:49;;;;;;;0.40;0.40;;;;;;;;;;5032091;28;58509;-60
2023/05/21 01:26:15;;;;;;;0.60;0.60;;;;;;;;;;5028530;28;58651;-61
2023/05/21 01:28:41;;;;;;;0.77;0.50;;;;;;;;;;5029312;28;59027;-61
2023/05/21 01:31:14;;;;;;;0.80;0.47;;;;;;;;;;5031511;28;58757;-60
2023/05/21 01:33:47;;;;;;;0.40;0.40;;;;;;;;;;5026750;28;58130;-60
2023/05/21 01:36:20;;;;;;;0.40;0.40;;;;;;;;;;5019182;28;58573;-61
2023/05/21 01:38:48;;;;;;;0.40;0.40;;;;;;;;;;5020928;28;58679;-61
2023/05/21 01:41:16;;;;;;;1.15;0.45;;;;;;;;;;5018644;28;58370;-61
2023/05/21 01:43:44;;;;;;;0.60;0.60;;;;;;;;;;5026216;28;58534;-60
2023/05/21 01:46:09;;;;;;;0.50;0.50;;;;;;;;;;5024381;28;58360;-61
2023/05/21 01:48:35;;;;;;;0.60;0.60;;;;;;;;;;5019951;28;58834;-61
2023/05/21 01:51:01;;;;;;;0.40;0.40;;;;;;;;;;5021440;28;58811;-59
2023/05/21 01:53:26;;;;;;;0.40;0.40;;;;;;;;;;5024086;28;58363;-62
2023/05/21 01:55:53;;;;;;;2.05;0.50;;;;;;;;;;5025132;28;58301;-62
2023/05/21 01:58:20;;;;;;;0.52;0.52;;;;;;;;;;5023114;28;58497;-57
2023/05/21 02:00:45;;;;;;;0.43;0.43;;;;;;;;;;5022513;28;58546;-61
2023/05/21 02:03:10;;;;;;;1.65;0.40;;;;;;;;;;5023604;28;59959;-59
2023/05/21 02:05:36;;;;;;;0.37;0.37;;;;;;;;;;5022771;28;58350;-61
2023/05/21 02:08:01;;;;;;;0.40;0.40;;;;;;;;;;5020914;28;60084;-60
2023/05/21 02:10:26;;;;;;;0.57;0.57;;;;;;;;;;5021705;28;58696;-61
2023/05/21 02:12:51;;;;;;;0.50;0.50;;;;;;;;;;5024600;28;58387;-61
2023/05/21 02:15:17;;;;;;;0.40;0.40;;;;;;;;;;5023512;28;58406;-61
2023/05/21 02:17:43;;;;;;;0.35;0.35;;;;;;;;;;5020568;28;58732;-60
2023/05/21 02:20:11;;;;;;;0.80;0.80;;;;;;;;;;5020645;28;58529;-61
2023/05/21 02:22:44;;;;;;;0.50;0.50;;;;;;;;;;5026403;28;58265;-61
2023/05/21 02:25:10;;;;;;;0.30;0.30;;;;;;;;;;5027173;28;58218;-60
2023/05/21 02:27:36;;;;;;;0.85;0.70;;;;;;;;;;5027094;28;58704;-61
2023/05/21 02:30:05;;;;;;;0.40;0.40;;;;;;;;;;5018166;28;58398;-62
2023/05/21 02:32:33;;;;;;;0.43;0.40;;;;;;;;;;5018643;28;58332;-62
2023/05/21 02:34:58;;;;;;;;;;;;;;;;;;5021907;28;59118;-61
2023/05/21 02:37:26;;;;;;;0.40;0.20;;;;;;;;;;5013307;28;58475;-61
2023/05/21 02:39:51;;;;;;;0.50;0.47;;;;;;;;;;5018593;28;58088;-61
2023/05/21 02:42:16;;;;;;;0.47;0.47;;;;;;;;;;5020043;28;58224;-61
2023/05/21 02:44:41;;;;;;;0.40;0.40;;;;;;;;;;5017468;28;58255;-61
2023/05/21 02:47:09;;;;;;;0.50;0.43;;;;;;;;;;5021726;28;58388;-60
2023/05/21 02:49:34;;;;;;;0.30;0.30;;;;;;;;;;5018168;28;59709;-59
2023/05/21 02:51:59;;;;;;;0.50;0.50;;;;;;;;;;5022886;28;58330;-61
2023/05/21 02:54:24;;;;;;;0.50;0.50;;;;;;;;;;5021445;28;58749;-61
2023/05/21 02:56:50;;;;;;;0.60;0.60;;;;;;;;;;5022467;28;58915;-61
2023/05/21 02:59:15;;;;;;;0.30;0.30;;;;;;;;;;5014362;28;58364;-61
2023/05/21 03:01:40;;;;;;;0.47;0.47;;;;;;;;;;5017615;28;58910;-60
2023/05/21 03:04:05;;;;;;;0.67;0.67;;;;;;;;;;5017002;28;58976;-60
2023/05/21 03:06:31;;;;;;;0.70;0.45;;;;;;;;;;5014808;28;58491;-61
2023/05/21 03:08:56;;;;;;;0.30;0.30;;;;;;;;;;5015384;28;58633;-61
2023/05/21 03:11:21;;;;;;;1.90;0.82;;;;;;;;;;5020431;28;58421;-61
2023/05/21 03:13:46;;;;;;;0.43;0.43;;;;;;;;;;5017644;28;57892;-61
2023/05/21 03:16:11;;;;;;;0.50;0.50;;;;;;;;;;5016078;28;58674;-61
2023/05/21 03:18:36;;;;;;;0.63;0.63;;;;;;;;;;5015297;28;58684;-61
2023/05/21 03:21:03;;;;;;;0.85;0.50;;;;;;;;;;5020417;28;58655;-60
2023/05/21 03:23:28;;;;;;;0.50;0.47;;;;;;;;;;5019889;28;58837;-61
2023/05/21 03:25:53;;;;;;;0.50;0.50;;;;;;;;;;5013907;28;58305;-61
2023/05/21 03:28:18;;;;;;;0.33;0.33;;;;;;;;;;5020517;28;58437;-61
2023/05/21 03:30:45;;;;;;;0.43;0.40;;;;;;;;;;5021009;28;58520;-60
2023/05/21 03:33:10;;;;;;;0.50;0.50;;;;;;;;;;5017319;28;59062;-61
2023/05/21 03:35:35;;;;;;;0.50;0.50;;;;;;;;;;5019984;28;58489;-60
2023/05/21 03:38:01;;;;;;;0.30;0.30;;;;;;;;;;5014442;28;58402;-61
2023/05/21 03:40:26;;;;;;;0.60;0.60;;;;;;;;;;5017807;28;59920;-61
2023/05/21 03:42:51;;;;;;;0.63;0.50;;;;;;;;;;5019793;28;58207;-61
2023/05/21 03:45:16;;;;;;;0.40;0.40;;;;;;;;;;5019880;28;58577;-60
2023/05/21 03:47:41;;;;;;;0.22;0.22;;;;;;;;;;5018825;28;58377;-61
2023/05/21 03:50:08;;;;;;;0.40;0.40;;;;;;;;;;5015221;28;58398;-61
2023/05/21 03:52:33;;;;;;;0.38;0.38;;;;;;;;;;5013739;28;58654;-61
2023/05/21 03:54:58;;;;;;;0.60;0.60;;;;;;;;;;5020660;28;58347;-61
2023/05/21 03:57:23;;;;;;;0.40;0.40;;;;;;;;;;5018273;28;58386;-58
2023/05/21 03:59:48;;;;;;;2.20;0.73;;;;;;;;;;5020885;28;58757;-61
2023/05/21 04:02:14;;;;;;;0.70;0.33;;;;;;;;;;5016775;28;58407;-60
2023/05/21 04:04:39;;;;;;;0.33;0.33;;;;;;;;;;5019271;28;58652;-61
2023/05/21 04:07:04;;;;;;;0.30;0.30;;;;;;;;;;5016372;28;58449;-61
2023/05/21 04:09:29;;;;;;;0.30;0.30;;;;;;;;;;5014663;28;58508;-61
2023/05/21 04:11:54;;;;;;;0.33;0.33;;;;;;;;;;5012983;28;58318;-61
2023/05/21 04:14:20;;;;;;;0.40;0.30;;;;;;;;;;5017335;28;58389;-61
2023/05/21 04:16:47;;;;;;;0.35;0.35;;;;;;;;;;5014704;28;58740;-60
2023/05/21 04:19:13;;;;;;;1.00;0.40;;;;;;;;;;5015400;28;58615;-60
2023/05/21 04:21:38;;;;;;;0.70;0.60;;;;;;;;;;5022850;28;58335;-61
2023/05/21 04:24:03;;;;;;;0.40;0.40;;;;;;;;;;5017435;28;58468;-62
2023/05/21 04:26:32;;;;;;;0.57;0.57;;;;;;;;;;5016577;28;58810;-60
2023/05/21 04:28:58;;;;;;;0.40;0.40;;;;;;;;;;5014720;28;58748;-61
2023/05/21 04:31:23;;;;;;;0.32;0.32;;;;;;;;;;5019896;28;58416;-59
2023/05/21 04:33:48;;;;;;;0.60;0.60;;;;;;;;;;5015612;28;59479;-61
2023/05/21 04:36:16;;;;;;;0.50;0.50;;;;;;;;;;5014380;28;58382;-59
2023/05/21 04:38:41;;;;;;;0.50;0.50;;;;;;;;;;5015897;28;59744;-59
2023/05/21 04:41:09;;;;;;;0.37;0.37;;;;;;;;;;5016072;28;58859;-60
2023/05/21 04:43:34;;;;;;;0.40;0.32;;;;;;;;;;5018603;28;58742;-62
2023/05/21 04:46:00;;;;;;;0.20;0.20;;;;;;;;;;5018308;28;58701;-61
2023/05/21 04:48:28;;;;;;;0.30;0.28;;;;;;;;;;5012599;28;58726;-61
2023/05/21 04:50:54;;;;;;;;;;;;;;;;;;5016175;28;58161;-61
2023/05/21 04:53:20;;;;;;;0.50;0.50;;;;;;;;;;5019345;28;58756;-61
2023/05/21 04:55:45;;;;;;;0.68;0.40;;;;;;;;;;5017709;28;58536;-61
2023/05/21 04:58:11;;;;;;;0.40;0.40;;;;;;;;;;5023330;28;59376;-61
2023/05/21 05:00:40;;;;;;;0.50;0.50;;;;;;;;;;5019398;28;58775;-60
2023/05/21 05:03:06;;;;;;;0.50;0.50;;;;;;;;;;5014912;28;58733;-60
2023/05/21 05:05:31;;;;;;;0.40;0.33;;;;;;;;;;5017471;28;58815;-61
2023/05/21 05:07:57;;;;;;;0.50;0.50;;;;;;;;;;5013589;28;59307;-61
2023/05/21 05:10:22;;;;;;;0.35;0.35;;;;;;;;;;5018560;28;58429;-61
2023/05/21 05:12:47;;;;;;;0.33;0.33;;;;;;;;;;5021430;28;58223;-61
2023/05/21 05:15:12;;;;;;;0.30;0.30;;;;;;;;;;5015558;28;58779;-61
2023/05/21 05:17:38;;;;;;;0.50;0.50;;;;;;;;;;5017060;28;58835;-60
2023/05/21 05:20:04;;;;;;;0.60;0.50;;;;;;;;;;5014600;28;58582;-61
2023/05/21 05:22:29;;;;;;;0.20;0.20;;;;;;;;;;5018548;28;58335;-61
2023/05/21 05:24:54;;;;;;;0.50;0.40;;;;;;;;;;5016228;28;58252;-61
2023/05/21 05:27:19;;;;;;;0.47;0.30;;;;;;;;;;5020520;28;58485;-61
2023/05/21 05:29:45;;;;;;;0.40;0.40;;;;;;;;;;5020190;28;58295;-61
2023/05/21 05:32:10;;;;;;;0.38;0.38;;;;;;;;;;5017288;28;58601;-61
2023/05/21 05:34:36;;;;;;;0.30;0.30;;;;;;;;;;5015808;28;58620;-61
2023/05/21 05:37:01;;;;;;;0.30;0.30;;;;;;;;;;5015845;28;58319;-61
2023/05/21 05:39:26;;;;;;;0.47;0.47;;;;;;;;;;5016934;28;58642;-62
2023/05/21 05:41:52;;;;;;;0.43;0.43;;;;;;;;;;5016420;28;58432;-61
2023/05/21 05:44:17;;;;;;;0.57;0.57;;;;;;;;;;5015959;28;59038;-61
2023/05/21 05:46:42;;;;;;;0.32;0.32;;;;;;;;;;5019175;28;58386;-60
2023/05/21 05:49:07;;;;;;;0.40;0.40;;;;;;;;;;5012711;28;58027;-60
2023/05/21 05:51:33;;;;;;;0.30;0.30;;;;;;;;;;5018576;28;58929;-62
2023/05/21 05:53:58;;;;;;;0.30;0.30;;;;;;;;;;5016531;28;58530;-61
2023/05/21 05:56:23;;;;;;;0.32;0.32;;;;;;;;;;5017240;28;58395;-61
2023/05/21 05:58:48;;;;;;;0.30;0.30;;;;;;;;;;5013287;28;58388;-60
2023/05/21 06:01:13;;;;;;;0.40;0.40;;;;;;;;;;5017109;28;58713;-61
2023/05/21 06:03:39;;;;;;;0.25;0.20;;;;;;;;;;5014213;28;59050;-61
2023/05/21 06:06:04;;;;;;;0.40;0.40;;;;;;;;;;5016763;28;58392;-61
2023/05/21 06:08:29;;;;;;;0.40;0.40;;;;;;;;;;5019766;28;58570;-61
2023/05/21 06:10:54;;;;;;;0.40;0.40;;;;;;;;;;5020308;28;58377;-62
2023/05/21 06:13:19;;;;;;;0.20;0.20;;;;;;;;;;5017138;28;58833;-61
2023/05/21 06:15:44;;;;;;;0.77;0.40;;;;;;;;;;5020365;28;58348;-61
2023/05/21 06:18:10;;;;;;;0.30;0.30;;;;;;;;;;5017205;28;58353;-61
2023/05/21 06:20:35;;;;;;;1.75;0.30;;;;;;;;;;5022790;28;58832;-61
2023/05/21 06:23:00;;;;;;;0.40;0.40;;;;;;;;;;5015987;28;60154;-61
2023/05/21 06:25:25;;;;;;;0.55;0.50;;;;;;;;;;5017496;28;58508;-61
2023/05/21 06:27:50;;;;;;;0.40;0.40;;;;;;;;;;5024549;28;58577;-61
2023/05/21 06:30:16;;;;;;;0.43;0.40;;;;;;;;;;5022181;28;58721;-61
2023/05/21 06:32:41;;;;;;;0.53;0.40;;;;;;;;;;5017972;28;58741;-60
2023/05/21 06:35:07;;;;;;;0.40;0.38;;;;;;;;;;5016885;28;58845;-60
2023/05/21 06:37:32;;;;;;;0.55;0.40;;;;;;;;;;5019868;28;58682;-61
2023/05/21 06:39:57;;;;;;;0.40;0.40;;;;;;;;;;5021356;28;58634;-60
2023/05/21 06:42:22;;;;;;;0.32;0.32;;;;;;;;;;5018490;28;58652;-62
2023/05/21 06:44:47;;;;;;;0.32;0.30;;;;;;;;;;5019015;28;58461;-61
2023/05/21 06:47:12;;;;;;;0.40;0.40;;;;;;;;;;5020533;27;59142;-61
2023/05/21 06:49:38;;;;;;;0.73;0.50;;;;;;;;;;5016545;28;58365;-61
2023/05/21 06:52:03;;;;;;;0.30;0.30;;;;;;;;;;5017233;28;58402;-61
2023/05/21 06:54:28;;;;;;;0.45;0.45;;;;;;;;;;5015186;28;59804;-59
2023/05/21 06:56:53;;;;;;;0.40;0.40;;;;;;;;;;5014182;28;58344;-61
2023/05/21 06:59:18;;;;;;;0.30;0.30;;;;;;;;;;5011777;28;58616;-61
2023/05/21 07:01:43;;;;;;;0.35;0.35;;;;;;;;;;5018431;28;58762;-60
2023/05/21 07:04:09;;;;;;;0.30;0.30;;;;;;;;;;5015165;28;58382;-61
2023/05/21 07:06:35;;;;;;;0.30;0.30;;;;;;;;;;5016860;28;58603;-60
2023/05/21 07:09:00;;;;;;;0.57;0.57;;;;;;;;;;5015819;28;58501;-59
2023/05/21 07:11:27;;;;;;;1.13;0.75;;;;;;;;;;5017308;28;58518;-61
2023/05/21 07:13:53;;;;;;;0.65;0.65;;;;;;;;;;5018664;28;58639;-60
2023/05/21 07:16:18;;;;;;;0.40;0.40;;;;;;;;;;5021128;28;60028;-61
2023/05/21 07:18:43;;;;;;;0.30;0.30;;;;;;;;;;5011744;28;58734;-61
2023/05/21 07:21:09;;;;;;;0.40;0.40;;;;;;;;;;5015028;28;60844;-61
2023/05/21 07:23:34;;;;;;;0.27;0.27;;;;;;;;;;5014690;28;59320;-61
2023/05/21 07:25:59;;;;;;;0.40;0.40;;;;;;;;;;5010971;28;58280;-61
2023/05/21 07:28:24;;;;;;;0.50;0.50;;;;;;;;;;5021469;28;58492;-59
2023/05/21 07:30:49;;;;;;;0.23;0.23;;;;;;;;;;5009522;28;58662;-61
2023/05/21 07:33:15;;;;;;;0.40;0.40;;;;;;;;;;5012975;28;58652;-61
2023/05/21 07:35:40;;;;;;;0.88;0.20;;;;;;;;;;5013145;28;58939;-61
2023/05/21 07:38:05;;;;;;;0.30;0.30;;;;;;;;;;5012201;28;58451;-60
2023/05/21 07:40:30;;;;;;;0.50;0.50;;;;;;;;;;5019291;28;58533;-61
2023/05/21 07:42:55;;;;;;;0.50;0.50;;;;;;;;;;5018983;28;58750;-58
2023/05/21 07:45:21;;;;;;;0.93;0.60;;;;;;;;;;5017125;28;58771;-61
2023/05/21 07:47:46;;;;;;;0.63;0.60;;;;;;;;;;5015026;28;58716;-60
2023/05/21 07:50:11;;;;;;;3.40;1.03;;;;;;;;;;5014772;28;58431;-61
2023/05/21 07:52:36;;;;;;;0.50;0.50;;;;;;;;;;5017879;28;58419;-61
2023/05/21 07:55:01;;;;;;;0.60;0.52;;;;;;;;;;5012390;28;58179;-61
2023/05/21 07:57:27;;;;;;;1.88;1.08;;;;;;;;;;5016851;28;58551;-61
2023/05/21 07:59:52;;;;;;;1.27;0.70;;;;;;;;;;5016258;28;58502;-60
2023/05/21 08:02:17;;;;;;;2.38;1.52;;;;;;;;;;5019603;28;58395;-61
2023/05/21 08:04:43;;;;;;;0.70;0.60;;;;;;;;;;5016128;28;58465;-60
2023/05/21 08:07:09;;;;;;;2.47;1.00;;;;;;;;;;5015509;28;58231;-60
2023/05/21 08:09:34;;;;;;;1.00;0.90;;;;;;;;;;5009899;28;58298;-61
2023/05/21 08:11:59;;;;;;;0.60;0.57;;;;;;;;;;5015107;28;59238;-61
2023/05/21 08:14:24;;;;;;;2.13;0.73;;;;;;;;;;5013635;28;58334;-60
2023/05/21 08:16:50;;;;;;;1.45;0.80;;;;;;;;;;5017868;28;58332;-61
2023/05/21 08:19:15;;;;;;;1.03;0.90;;;;;;;;;;5015635;28;58614;-61
2023/05/21 08:21:40;;;;;;;1.37;0.70;;;;;;;;;;5020268;28;58252;-61
2023/05/21 08:24:06;;;;;;;2.22;0.50;;;;;;;;;;5016182;28;58308;-61
2023/05/21 08:26:31;;;;;;;1.10;0.98;;;;;;;;;;5023207;28;58371;-61
2023/05/21 08:28:56;;;;;;;1.07;0.80;;;;;;;;;;5020667;28;59837;-61
2023/05/21 08:31:21;;;;;;;1.60;0.97;;;;;;;;;;5018518;28;58286;-62
2023/05/21 08:33:50;;;;;;;1.85;0.90;;;;;;;;;;5021447;28;58372;-61
2023/05/21 08:36:15;;;;;;;0.90;0.90;;;;;;;;;;5020115;28;58477;-61
2023/05/21 08:38:40;;;;;;;0.93;0.90;;;;;;;;;;5014457;28;58296;-62
2023/05/21 08:41:06;;;;;;;1.00;0.77;;;;;;;;;;5022237;28;58582;-61
2023/05/21 08:43:32;;;;;;;2.30;0.75;;;;;;;;;;5019490;28;58442;-60
2023/05/21 08:45:59;;;;;;;0.80;0.80;;;;;;;;;;5014426;28;58350;-61
2023/05/21 08:48:24;;;;;;;0.75;0.75;;;;;;;;;;5012801;28;58652;-61
2023/05/21 08:50:51;;;;;;;0.87;0.73;;;;;;;;;;5011263;28;58414;-61
2023/05/21 08:53:16;;;;;;;0.90;0.70;;;;;;;;;;5017566;28;58763;-61
2023/05/21 08:55:42;;;;;;;1.17;0.90;;;;;;;;;;5018258;28;60019;-62
2023/05/21 08:58:07;;;;;;;1.15;0.80;;;;;;;;;;5016234;28;58610;-61
2023/05/21 09:00:32;;;;;;;1.63;1.02;;;;;;;;;;5014158;28;58431;-64
2023/05/21 09:02:59;;;;;;;0.90;0.77;;;;;;;;;;5024479;28;58721;-62
2023/05/21 09:05:25;;;;;;;0.93;0.70;;;;;;;;;;5024577;28;58406;-59
2023/05/21 09:08:07;;;;;;;2.80;0.90;;;;;;;;;;5026387;28;58595;-61
2023/05/21 09:10:37;;;;;;;3.50;0.88;;;;;;;;;;5024473;28;58410;-62
2023/05/21 09:13:03;;;;;;;1.13;0.60;;;;;;;;;;5028423;28;58859;-59
2023/05/21 09:15:28;;;;;;;3.10;1.55;;;;;;;;;;5025029;28;58749;-62
2023/05/21 09:17:54;;;;;;;3.57;0.97;;;;;;;;;;5028728;28;58091;-62
2023/05/21 09:20:23;;;;;;;3.67;1.33;;;;;;;;;;5026028;28;59865;-60
2023/05/21 09:22:48;;;;;;;3.17;1.30;;;;;;;;;;5025688;28;58955;-59
2023/05/21 09:25:15;;;;;;;1.00;0.80;;;;;;;;;;5027417;28;58651;-57
2023/05/21 09:27:40;;;;;;;0.70;0.70;;;;;;;;;;5027775;28;59121;-58
2023/05/21 09:30:16;;;;;;;5.20;1.00;;;;;;;;;;5025093;28;58739;-60
2023/05/21 09:32:42;;;;;;;2.45;1.10;;;;;;;;;;5027292;28;58757;-60
2023/05/21 09:35:11;;;;;;;4.70;1.95;;;;;;;;;;5025483;27;59182;-60
2023/05/21 09:37:37;;;;;;;1.20;0.82;;;;;;;;;;5024251;28;58469;-60
2023/05/21 09:40:08;;;;;;;2.45;1.05;;;;;;;;;;5019971;28;58757;-60
2023/05/21 09:42:33;;;;;;;1.90;0.95;;;;;;;;;;5027378;28;58607;-60
2023/05/21 09:44:59;;;;;;;1.33;0.67;;;;;;;;;;5030152;28;58361;-59
2023/05/21 09:47:24;;;;;;;1.60;0.82;;;;;;;;;;5028782;28;59215;-64
2023/05/21 09:49:49;;;;;;;1.83;0.90;;;;;;;;;;5025492;28;59841;-62
2023/05/21 09:52:22;;;;;;;2.33;0.70;;;;;;;;;;5029185;28;58338;-62
2023/05/21 09:54:47;;;;;;;2.33;0.75;;;;;;;;;;5029056;28;63119;-66
2023/05/21 09:57:13;;;;;;;1.90;0.90;;;;;;;;;;5030796;28;59285;-66
2023/05/21 09:59:38;;;;;;;1.00;0.90;;;;;;;;;;5024958;28;58964;-64
2023/05/21 10:02:13;;;;;;;3.63;1.10;;;;;;;;;;5024047;28;58920;-65
2023/05/21 10:04:39;;;;;;;2.42;0.95;;;;;;;;;;5028572;28;58320;-65
2023/05/21 10:07:04;;;;;;;4.55;1.20;;;;;;;;;;5028595;28;59233;-66
2023/05/21 10:09:30;;;;;;;2.40;1.50;;;;;;;;;;5026374;28;58433;-65
2023/05/21 10:11:55;;;;;;;2.95;1.58;;;;;;;;;;5022600;28;58494;-65
2023/05/21 10:14:21;;;;;;;1.20;1.10;;;;;;;;;;5030474;28;58680;-65
2023/05/21 10:16:46;;;;;;;1.58;1.17;;;;;;;;;;5028773;28;58728;-62
2023/05/21 10:19:13;;;;;;;1.53;1.17;;;;;;;;;;5028033;28;58703;-66
2023/05/21 10:21:38;;;;;;;1.52;1.42;;;;;;;;;;5019602;28;58800;-65
2023/05/21 10:24:04;;;;;;;1.42;1.13;;;;;;;;;;5029598;28;58029;-65
2023/05/21 10:26:30;;;;;;;1.70;1.60;;;;;;;;;;5028992;28;58975;-65
2023/05/21 10:28:55;;;;;;;1.50;1.20;;;;;;;;;;5028575;28;58521;-64
2023/05/21 10:31:21;;;;;;;3.05;1.25;;;;;;;;;;5021395;28;58978;-65
2023/05/21 10:33:47;;;;;;;1.63;1.17;;;;;;;;;;5027154;28;58634;-65
2023/05/21 10:36:14;;;;;;;2.00;1.10;;;;;;;;;;5029868;28;58518;-65
2023/05/21 10:38:39;;;;;;;2.03;1.67;;;;;;;;;;5024853;28;58310;-65
2023/05/21 10:41:05;;;;;;;1.45;1.35;;;;;;;;;;5023570;28;58477;-65
2023/05/21 10:43:34;;;;;;;1.20;1.10;;;;;;;;;;5028284;28;58808;-66
2023/05/21 10:46:21;;;;;;;2.30;1.58;;;;;;;;;;5028002;28;58295;-65
2023/05/21 10:48:58;;;;;;;2.55;1.35;;;;;;;;;;5027003;28;58895;-65
2023/05/21 10:51:42;;;;;;;1.23;1.20;;;;;;;;;;5031811;28;58504;-65
2023/05/21 10:54:17;;;;;;;1.25;1.15;;;;;;;;;;5025085;28;59000;-66
2023/05/21 10:57:08;;;;;;;1.17;1.13;;;;;;;;;;5028541;28;58571;-65
2023/05/21 10:59:36;;;;;;;2.88;1.77;;;;;;;;;;5027747;28;58506;-65
2023/05/21 11:02:01;;;;;;;;;;;;;;;;;;5022222;28;58584;-61
2023/05/21 11:04:27;;;;;;;1.60;1.50;;;;;;;;;;5024187;28;58363;-65
2023/05/21 11:06:53;;;;;;;1.35;1.25;;;;;;;;;;5027999;28;58777;-65
2023/05/21 11:09:18;;;;;;;1.35;1.25;;;;;;;;;;5027663;28;58853;-64
2023/05/21 11:11:47;;;;;;;1.70;1.60;;;;;;;;;;5030071;28;58820;-65
2023/05/21 11:14:33;;;;;;;1.60;1.50;;;;;;;;;;5022054;28;58317;-64
2023/05/21 11:16:59;;;;;;;2.20;1.70;;;;;;;;;;5029000;28;58579;-65
2023/05/21 11:19:35;;;;;;;1.83;1.73;;;;;;;;;;5029244;28;59572;-65
2023/05/21 11:22:03;;;;;;;2.80;1.17;;;;;;;;;;5028765;28;58888;-64
2023/05/21 11:24:31;;;;;;;1.52;1.42;;;;;;;;;;5021783;28;58491;-65
2023/05/21 11:26:57;;;;;;;1.30;1.20;;;;;;;;;;5026322;28;59045;-65
2023/05/21 11:29:31;;;;;;;1.52;1.25;;;;;;;;;;5029438;28;58719;-65
2023/05/21 11:32:01;;;;;;;1.55;1.40;;;;;;;;;;5026382;28;58481;-65
2023/05/21 11:34:35;;;;;;;2.05;1.85;;;;;;;;;;5026574;28;58918;-67
2023/05/21 11:37:32;;;;;;;2.28;1.42;;;;;;;;;;5023566;28;59303;-65
2023/05/21 11:39:58;;;;;;;2.75;1.83;;;;;;;;;;5025833;28;58792;-66
2023/05/21 11:42:26;;;;;;;3.88;2.63;;;;;;;;;;5026544;28;58553;-65
2023/05/21 11:44:51;;;;;;;2.30;1.60;;;;;;;;;;5026104;28;58471;-66
2023/05/21 11:47:17;;;;;;;4.73;1.83;;;;;;;;;;5018472;28;58813;-63
2023/05/21 11:49:43;;;;;;;3.15;2.13;;;;;;;;;;5026008;28;58533;-64
2023/05/21 11:52:09;;;;;;;6.68;2.80;;;;;;;;;;5023523;28;58417;-63
2023/05/21 11:54:49;;;;;;;5.75;1.83;;;;;;;;;;5026525;28;60083;-66
2023/05/21 11:57:16;;;;;;;3.65;2.55;;;;;;;;;;5026783;28;58575;-65
2023/05/21 11:59:41;;;;;;;3.35;2.15;;;;;;;;;;5026125;28;58667;-64
2023/05/21 12:02:06;;;;;;;3.00;2.17;;;;;;;;;;5020484;28;58592;-64
2023/05/21 12:04:35;;;;;;;3.35;2.35;;;;;;;;;;5021219;28;61147;-66
2023/05/21 12:07:02;;;;;;;3.88;2.10;;;;;;;;;;5026324;28;58360;-65
2023/05/21 12:09:27;;;;;;;2.70;1.90;;;;;;;;;;5024915;28;58403;-66
2023/05/21 12:11:53;;;;;;;2.55;1.90;;;;;;;;;;5023997;28;58678;-66
2023/05/21 12:14:18;;;;;;;3.93;2.27;;;;;;;;;;5020449;28;59765;-65
2023/05/21 12:16:43;;;;;;;2.20;2.00;;;;;;;;;;5023023;28;58584;-66
2023/05/21 12:19:08;;;;;;;2.23;2.00;;;;;;;;;;5023615;28;58288;-65
2023/05/21 12:21:34;;;;;;;9.10;2.93;;;;;;;;;;5024616;28;58361;-66
2023/05/21 12:24:02;;;;;;;2.67;2.20;;;;;;;;;;5024749;28;59080;-62
2023/05/21 12:26:28;;;;;;;4.80;2.25;;;;;;;;;;5024345;28;58377;-66
2023/05/21 12:28:54;;;;;;;3.25;2.17;;;;;;;;;;5026656;28;58976;-65
2023/05/21 12:31:21;;;;;;;3.65;2.42;;;;;;;;;;5028987;28;58485;-66
2023/05/21 12:33:48;;;;;;;2.70;1.65;;;;;;;;;;5025077;28;58383;-65
2023/05/21 12:36:26;;;;;;;4.45;2.28;;;;;;;;;;5021986;28;58531;-66
2023/05/21 12:38:51;;;;;;;2.33;2.13;;;;;;;;;;5025005;28;58819;-65
2023/05/21 12:41:17;;;;;;;2.50;2.13;;;;;;;;;;5027031;28;58486;-66
2023/05/21 12:43:42;;;;;;;5.43;2.33;;;;;;;;;;5027458;28;58386;-65
2023/05/21 12:46:10;;;;;;;5.70;2.40;;;;;;;;;;5020493;28;58521;-66
2023/05/21 12:48:37;;;;;;;3.88;1.98;;;;;;;;;;5026710;28;59062;-65
2023/05/21 12:51:02;;;;;;;2.70;2.25;;;;;;;;;;5021999;28;58439;-66
2023/05/21 12:53:35;;;;;;;2.20;1.90;;;;;;;;;;5028013;28;58356;-64
2023/05/21 12:56:07;;;;;;;3.05;2.65;;;;;;;;;;5023074;28;58381;-64
2023/05/21 12:58:32;;;;;;;2.83;2.53;;;;;;;;;;5026781;28;58677;-65
2023/05/21 13:00:58;;;;;;;5.90;2.80;;;;;;;;;;5023451;28;59039;-66
2023/05/21 13:03:24;;;;;;;5.10;2.40;;;;;;;;;;5027360;28;58284;-66
2023/05/21 13:05:56;;;;;;;3.95;2.63;;;;;;;;;;5021590;28;58358;-64
2023/05/21 13:08:21;;;;;;;2.50;2.30;;;;;;;;;;5023802;28;58483;-66
2023/05/21 13:10:47;;;;;;;3.00;2.30;;;;;;;;;;5023207;28;58687;-66
2023/05/21 13:13:12;;;;;;;2.90;2.17;;;;;;;;;;5025741;28;59036;-66
2023/05/21 13:15:37;;;;;;;3.10;2.08;;;;;;;;;;5024583;28;58426;-65
2023/05/21 13:18:02;;;;;;;4.60;2.73;;;;;;;;;;5018587;28;58282;-65
2023/05/21 13:20:28;;;;;;;6.40;2.30;;;;;;;;;;5024365;28;58396;-65
2023/05/21 13:22:53;;;;;;;3.03;2.70;;;;;;;;;;5025617;28;58590;-63
2023/05/21 13:25:20;;;;;;;2.93;2.30;;;;;;;;;;5025995;28;58857;-65
2023/05/21 13:27:45;;;;;;;3.15;2.88;;;;;;;;;;5016530;28;59651;-66
2023/05/21 13:30:11;;;;;;;6.45;2.83;;;;;;;;;;5026197;28;58485;-65
2023/05/21 13:32:36;;;;;;;4.33;2.93;;;;;;;;;;5023685;28;58505;-65
2023/05/21 13:35:01;;;;;;;3.42;3.13;;;;;;;;;;5025595;28;58999;-66
2023/05/21 13:37:27;;;;;;;3.17;2.47;;;;;;;;;;5024694;28;58424;-66
2023/05/21 13:39:52;;;;;;;5.68;2.72;;;;;;;;;;5023042;28;60053;-65
2023/05/21 13:42:18;;;;;;;4.30;2.53;;;;;;;;;;5026127;28;58422;-65
2023/05/21 13:44:43;;;;;;;4.50;3.00;;;;;;;;;;5025592;28;58794;-66
2023/05/21 13:47:09;;;;;;;6.10;2.00;;;;;;;;;;5025836;28;58479;-63
2023/05/21 13:49:35;;;;;;;2.72;2.40;;;;;;;;;;5017456;28;58528;-65
2023/05/21 13:52:00;;;;;;;5.25;2.67;;;;;;;;;;5025283;28;58685;-65
2023/05/21 13:54:25;;;;;;;4.20;2.67;;;;;;;;;;5025651;28;58751;-60
2023/05/21 13:56:51;;;;;;;3.03;2.28;;;;;;;;;;5026008;28;58613;-65
2023/05/21 13:59:16;;;;;;;3.63;2.80;;;;;;;;;;5025100;28;58742;-65
2023/05/21 14:01:43;;;;;;;3.60;2.97;;;;;;;;;;5017567;28;58887;-65
2023/05/21 14:04:08;;;;;;;4.57;2.83;;;;;;;;;;5024913;28;58433;-65
2023/05/21 14:06:33;;;;;;;2.50;2.30;;;;;;;;;;5024403;28;58390;-66
2023/05/21 14:08:59;;;;;;;2.13;1.92;;;;;;;;;;5024753;28;58899;-65
2023/05/21 14:11:24;;;;;;;2.60;2.40;;;;;;;;;;5020216;28;58800;-64
2023/05/21 14:13:50;;;;;;;2.55;2.35;;;;;;;;;;5021884;28;58813;-66
2023/05/21 14:16:15;;;;;;;3.95;2.63;;;;;;;;;;5025818;28;59277;-65
2023/05/21 14:18:40;;;;;;;4.13;2.33;;;;;;;;;;5025339;28;58460;-65
2023/05/21 14:21:05;;;;;;;3.35;3.05;;;;;;;;;;5016106;28;58278;-65
2023/05/21 14:23:30;;;;;;;4.20;2.20;;;;;;;;;;5025637;28;58438;-65
2023/05/21 14:25:55;;;;;;;4.13;2.73;;;;;;;;;;5027198;28;58433;-67
2023/05/21 14:28:21;;;;;;;3.20;2.60;;;;;;;;;;5026159;28;58621;-65
2023/05/21 14:30:46;;;;;;;3.20;2.33;;;;;;;;;;5026849;28;58445;-66
2023/05/21 14:33:12;;;;;;;2.90;2.67;;;;;;;;;;5027446;28;59084;-66
2023/05/21 14:35:37;;;;;;;2.70;2.50;;;;;;;;;;5024349;28;58572;-66
2023/05/21 14:38:02;;;;;;;3.20;2.73;;;;;;;;;;5025051;28;58881;-64